createdAt,value
2018-06-02T00:01:43.533Z,18.69
2018-06-02T00:04:13.262Z,18.65
2018-06-02T00:06:47.230Z,18.57
2018-06-02T00:09:22.096Z,18.57
2018-06-02T00:11:51.753Z,18.65
2018-06-02T00:14:21.433Z,18.65
2018-06-02T00:16:57.557Z,18.67
2018-06-02T00:19:25.948Z,18.64
2018-06-02T00:21:54.124Z,18.76
2018-06-02T00:24:22.482Z,18.66
2018-06-02T00:26:51.428Z,18.67
2018-06-02T00:29:19.407Z,18.68
2018-06-02T00:31:47.661Z,18.56
2018-06-02T00:34:16.063Z,18.71
2018-06-02T00:36:48.340Z,18.61
2018-06-02T00:39:17.303Z,18.62
2018-06-02T00:41:49.653Z,18.56
2018-06-02T00:44:18.152Z,18.55
2018-06-02T00:46:47.179Z,18.55
2018-06-02T00:49:19.741Z,18.57
2018-06-02T00:51:47.785Z,18.70
2018-06-02T00:54:15.606Z,18.57
2018-06-02T00:56:46.259Z,18.57
2018-06-02T00:59:18.151Z,18.59
2018-06-02T01:01:48.769Z,18.59
2018-06-02T01:04:18.483Z,18.58
2018-06-02T01:06:47.641Z,18.49
2018-06-02T01:09:19.217Z,18.47
2018-06-02T01:11:49.573Z,18.44
2018-06-02T01:14:18.042Z,18.44
2018-06-02T01:16:48.697Z,18.29
2018-06-02T01:19:18.063Z,18.23
2018-06-02T01:21:47.119Z,18.48
2018-06-02T01:24:19.417Z,18.46
2018-06-02T01:26:49.529Z,18.48
2018-06-02T01:29:19.325Z,18.40
2018-06-02T01:31:47.419Z,18.37
2018-06-02T01:34:21.259Z,18.59
2018-06-02T01:36:50.135Z,18.41
2018-06-02T01:39:20.850Z,18.46
2018-06-02T01:41:50.557Z,18.41
2018-06-02T01:44:20.514Z,18.38
2018-06-02T01:46:48.708Z,18.36
2018-06-02T01:49:17.098Z,18.40
2018-06-02T01:51:45.505Z,18.36
2018-06-02T01:54:15.620Z,18.21
2018-06-02T01:56:43.714Z,18.28
2018-06-02T01:59:14.132Z,18.28
2018-06-02T02:01:42.407Z,18.29
2018-06-02T02:04:14.466Z,18.15
2018-06-02T02:06:44.650Z,18.25
2018-06-02T02:09:14.965Z,18.21
2018-06-02T02:11:43.506Z,18.36
2018-06-02T02:14:11.884Z,18.20
2018-06-02T02:16:41.207Z,18.09
2018-06-02T02:19:10.271Z,17.94
2018-06-02T02:21:38.659Z,18.09
2018-06-02T02:24:11.798Z,17.85
2018-06-02T02:26:41.007Z,17.77
2018-06-02T02:29:11.286Z,17.77
2018-06-02T02:31:39.773Z,17.94
2018-06-02T02:34:07.988Z,17.91
2018-06-02T02:36:36.771Z,17.83
2018-06-02T02:39:06.660Z,18.03
2018-06-02T02:41:36.250Z,17.92
2018-06-02T02:44:06.413Z,17.87
2018-06-02T02:46:35.337Z,17.84
2018-06-02T02:49:04.239Z,17.75
2018-06-02T02:51:33.838Z,17.63
2018-06-02T02:54:03.234Z,17.75
2018-06-02T02:56:36.172Z,17.68
2018-06-02T02:59:06.251Z,17.67
2018-06-02T03:01:34.759Z,17.63
2018-06-02T03:04:02.990Z,17.67
2018-06-02T03:06:31.335Z,17.58
2018-06-02T03:08:59.452Z,17.57
2018-06-02T03:11:27.361Z,17.43
2018-06-02T03:13:56.902Z,17.43
2018-06-02T03:16:25.571Z,17.44
2018-06-02T03:18:53.573Z,17.57
2018-06-02T03:21:23.778Z,17.66
2018-06-02T03:23:52.406Z,17.59
2018-06-02T03:26:21.476Z,17.38
2018-06-02T03:28:50.106Z,17.34
2018-06-02T03:31:19.882Z,17.37
2018-06-02T03:33:49.616Z,17.46
2018-06-02T03:36:19.631Z,17.33
2018-06-02T03:38:49.193Z,17.31
2018-06-02T03:41:19.548Z,17.46
2018-06-02T03:43:49.053Z,17.37
2018-06-02T03:46:19.887Z,17.39
2018-06-02T03:48:56.139Z,17.49
2018-06-02T03:51:26.708Z,17.43
2018-06-02T03:53:57.479Z,17.66
2018-06-02T03:56:25.846Z,17.64
2018-06-02T03:58:53.797Z,17.63
2018-06-02T04:01:23.133Z,17.58
2018-06-02T04:03:53.138Z,17.63
2018-06-02T04:06:21.323Z,17.40
2018-06-02T04:08:49.264Z,17.25
2018-06-02T04:11:18.355Z,17.25
2018-06-02T04:13:48.553Z,17.20
2018-06-02T04:16:17.090Z,17.08
2018-06-02T04:18:46.265Z,17.08
2018-06-02T04:21:14.707Z,17.03
2018-06-02T04:23:44.429Z,16.88
2018-06-02T04:26:13.440Z,16.88
2018-06-02T04:28:41.868Z,16.80
2018-06-02T04:31:12.867Z,16.75
2018-06-02T04:33:42.841Z,16.95
2018-06-02T04:36:11.725Z,16.92
2018-06-02T04:38:42.543Z,16.82
2018-06-02T04:41:14.043Z,16.71
2018-06-02T04:43:42.335Z,16.72
2018-06-02T04:46:11.456Z,16.80
2018-06-02T04:48:39.447Z,16.88
2018-06-02T04:51:09.959Z,16.81
2018-06-02T04:53:38.216Z,16.81
2018-06-02T04:56:06.880Z,17.01
2018-06-02T04:58:36.515Z,16.77
2018-06-02T05:01:10.318Z,16.91
2018-06-02T05:03:42.031Z,16.87
2018-06-02T05:06:11.511Z,16.87
2018-06-02T05:08:40.431Z,16.91
2018-06-02T05:11:10.437Z,16.86
2018-06-02T05:13:41.529Z,16.88
2018-06-02T05:16:11.330Z,17.08
2018-06-02T05:18:40.144Z,17.04
2018-06-02T05:21:08.336Z,17.07
2018-06-02T05:23:36.303Z,16.90
2018-06-02T05:26:09.393Z,16.89
2018-06-02T05:28:42.999Z,16.90
2018-06-02T05:31:12.425Z,16.77
2018-06-02T05:33:41.888Z,16.79
2018-06-02T05:36:10.372Z,16.80
2018-06-02T05:38:43.783Z,16.78
2018-06-02T05:41:12.542Z,16.84
2018-06-02T05:43:40.457Z,16.94
2018-06-02T05:46:09.334Z,16.94
2018-06-02T05:48:38.315Z,17.07
2018-06-02T05:51:06.989Z,17.00
2018-06-02T05:53:35.180Z,17.06
2018-06-02T05:56:04.247Z,17.18
2018-06-02T05:58:33.413Z,16.93
2018-06-02T06:01:01.934Z,16.98
2018-06-02T06:03:30.427Z,17.09
2018-06-02T06:05:58.474Z,17.20
2018-06-02T06:08:28.883Z,17.09
2018-06-02T06:10:59.267Z,16.97
2018-06-02T06:13:28.373Z,17.07
2018-06-02T06:15:57.466Z,16.96
2018-06-02T06:18:25.619Z,17.12
2018-06-02T06:20:53.094Z,17.24
2018-06-02T06:23:20.660Z,17.24
2018-06-02T06:25:48.135Z,17.35
2018-06-02T06:28:15.626Z,17.25
2018-06-02T06:30:43.127Z,17.27
2018-06-02T06:33:10.650Z,17.39
2018-06-02T06:35:39.030Z,17.70
2018-06-02T06:38:06.616Z,17.32
2018-06-02T06:40:34.095Z,17.23
2018-06-02T06:43:01.611Z,17.26
2018-06-02T06:45:29.146Z,17.37
2018-06-02T06:47:56.686Z,17.33
2018-06-02T06:50:24.300Z,17.39
2018-06-02T06:52:51.818Z,17.47
2018-06-02T06:55:19.303Z,17.57
2018-06-02T06:57:46.945Z,17.42
2018-06-02T07:00:14.369Z,17.43
2018-06-02T07:02:41.884Z,17.48
2018-06-02T07:05:09.469Z,17.22
2018-06-02T07:07:37.007Z,17.11
2018-06-02T07:10:04.577Z,17.37
2018-06-02T07:12:32.078Z,17.46
2018-06-02T07:14:59.567Z,17.49
2018-06-02T07:17:27.061Z,17.28
2018-06-02T07:19:54.542Z,17.53
2018-06-02T07:22:22.038Z,17.63
2018-06-02T07:24:49.559Z,17.64
2018-06-02T07:27:17.046Z,17.53
2018-06-02T07:29:44.533Z,17.35
2018-06-02T07:32:12.123Z,17.50
2018-06-02T07:34:39.610Z,17.57
2018-06-02T07:37:07.124Z,17.70
2018-06-02T07:39:35.445Z,17.38
2018-06-02T07:42:02.935Z,17.36
2018-06-02T07:44:30.422Z,17.66
2018-06-02T07:46:57.933Z,17.57
2018-06-02T07:49:25.422Z,17.59
2018-06-02T07:51:52.895Z,17.48
2018-06-02T07:54:20.403Z,17.37
2018-06-02T07:56:47.874Z,17.19
2018-06-02T07:59:15.430Z,17.66
2018-06-02T08:01:42.901Z,17.72
2018-06-02T08:04:10.444Z,17.74
2018-06-02T08:06:37.997Z,17.54
2018-06-02T08:09:05.583Z,17.66
2018-06-02T08:11:33.076Z,17.65
2018-06-02T08:14:00.679Z,17.69
2018-06-02T08:16:28.239Z,17.94
2018-06-02T08:18:55.736Z,17.59
2018-06-02T08:21:23.246Z,17.57
2018-06-02T08:23:50.747Z,17.50
2018-06-02T08:26:18.266Z,17.81
2018-06-02T08:28:45.851Z,17.67
2018-06-02T08:31:13.346Z,17.88
2018-06-02T08:33:40.915Z,17.83
2018-06-02T08:36:08.398Z,18.01
2018-06-02T08:38:35.955Z,18.04
2018-06-02T08:41:03.427Z,18.14
2018-06-02T08:43:30.917Z,18.13
2018-06-02T08:45:58.413Z,17.80
2018-06-02T08:48:25.902Z,17.79
2018-06-02T08:50:53.432Z,17.71
2018-06-02T08:53:20.931Z,17.89
2018-06-02T08:55:48.414Z,17.73
2018-06-02T08:58:15.902Z,17.85
2018-06-02T09:00:43.379Z,17.53
2018-06-02T09:03:11.592Z,17.69
2018-06-02T09:05:39.203Z,17.78
2018-06-02T09:08:06.766Z,17.68
2018-06-02T09:10:34.300Z,17.96
2018-06-02T09:13:01.861Z,18.25
2018-06-02T09:15:29.381Z,18.79
2018-06-02T09:17:56.961Z,18.95
2018-06-02T09:20:24.513Z,18.78
2018-06-02T09:22:52.050Z,18.69
2018-06-02T09:25:19.590Z,18.57
2018-06-02T09:27:47.133Z,18.60
2018-06-02T09:30:15.633Z,18.74
2018-06-02T09:32:43.161Z,18.86
2018-06-02T09:35:10.811Z,18.50
2018-06-02T09:37:38.320Z,18.54
2018-06-02T09:40:05.809Z,18.55
2018-06-02T09:42:33.359Z,18.38
2018-06-02T09:45:00.885Z,18.67
2018-06-02T09:47:28.403Z,18.69
2018-06-02T09:49:55.942Z,18.98
2018-06-02T09:52:23.592Z,18.86
2018-06-02T09:54:51.107Z,19.05
2018-06-02T09:57:18.614Z,19.25
2018-06-02T09:59:46.226Z,18.85
2018-06-02T10:02:13.753Z,19.22
2018-06-02T10:04:41.309Z,19.54
2018-06-02T10:07:08.899Z,19.61
2018-06-02T10:09:36.456Z,19.18
2018-06-02T10:12:04.020Z,19.35
2018-06-02T10:14:31.614Z,19.36
2018-06-02T10:16:59.128Z,19.76
2018-06-02T10:19:26.666Z,19.51
2018-06-02T10:21:54.179Z,19.45
2018-06-02T10:24:21.729Z,19.14
2018-06-02T10:26:49.257Z,19.43
2018-06-02T10:29:16.820Z,19.39
2018-06-02T10:31:44.385Z,19.85
2018-06-02T10:34:11.916Z,20.12
2018-06-02T10:36:39.440Z,19.61
2018-06-02T10:39:07.015Z,20.12
2018-06-02T10:41:34.551Z,20.50
2018-06-02T10:44:02.151Z,20.38
2018-06-02T10:46:29.751Z,20.18
2018-06-02T10:48:57.368Z,19.85
2018-06-02T10:51:24.900Z,19.84
2018-06-02T10:53:52.698Z,19.92
2018-06-02T10:56:20.222Z,19.65
2018-06-02T10:58:47.762Z,19.60
2018-06-02T11:01:15.287Z,19.68
2018-06-02T11:03:42.864Z,19.56
2018-06-02T11:06:10.427Z,19.77
2018-06-02T11:08:37.969Z,19.69
2018-06-02T11:11:05.514Z,19.88
2018-06-02T11:13:33.095Z,19.91
2018-06-02T11:16:00.647Z,20.14
2018-06-02T11:18:28.294Z,20.04
2018-06-02T11:20:55.810Z,19.83
2018-06-02T11:23:23.403Z,20.14
2018-06-02T11:25:51.011Z,20.08
2018-06-02T11:28:18.527Z,19.66
2018-06-02T11:30:46.080Z,19.61
2018-06-02T11:33:13.657Z,19.71
2018-06-02T11:35:41.181Z,19.71
2018-06-02T11:38:08.696Z,19.26
2018-06-02T11:40:36.244Z,19.37
2018-06-02T11:43:03.773Z,19.22
2018-06-02T11:45:31.664Z,19.57
2018-06-02T11:47:59.198Z,19.38
2018-06-02T11:50:26.789Z,19.55
2018-06-02T11:52:54.318Z,19.80
2018-06-02T11:55:21.906Z,19.68
2018-06-02T11:57:49.439Z,19.92
2018-06-02T12:00:17.023Z,19.84
2018-06-02T12:05:46.113Z,20.09
2018-06-02T12:08:13.634Z,20.08
2018-06-02T12:10:41.628Z,20.55
2018-06-02T12:13:09.184Z,20.47
2018-06-02T12:18:39.736Z,20.52
2018-06-02T12:21:08.922Z,20.32
2018-06-02T12:23:36.990Z,20.70
2018-06-02T12:26:06.556Z,20.42
2018-06-02T12:28:35.705Z,20.87
2018-06-02T12:31:03.378Z,20.57
2018-06-02T12:33:34.711Z,20.56
2018-06-02T12:36:02.250Z,20.75
2018-06-02T12:38:29.726Z,20.63
2018-06-02T12:40:57.222Z,20.68
2018-06-02T12:43:24.712Z,20.20
2018-06-02T12:45:52.222Z,19.99
2018-06-02T12:48:19.693Z,19.89
2018-06-02T12:50:47.199Z,19.61
2018-06-02T12:53:14.680Z,19.74
2018-06-02T12:55:42.176Z,19.51
2018-06-02T12:58:09.677Z,19.28
2018-06-02T13:00:37.187Z,19.33
2018-06-02T13:03:05.832Z,19.43
2018-06-02T13:05:33.500Z,19.18
2018-06-02T13:08:01.951Z,19.33
2018-06-02T13:10:29.503Z,19.35
2018-06-02T13:12:56.986Z,19.48
2018-06-02T13:15:24.485Z,19.67
2018-06-02T13:17:51.973Z,19.66
2018-06-02T13:20:19.557Z,19.77
2018-06-02T13:22:47.058Z,19.97
2018-06-02T13:25:14.619Z,19.98
2018-06-02T13:27:43.883Z,20.08
2018-06-02T13:30:11.425Z,19.70
2018-06-02T13:32:38.927Z,19.90
2018-06-02T13:35:06.763Z,20.02
2018-06-02T13:37:34.274Z,19.76
2018-06-02T13:40:02.982Z,19.99
2018-06-02T13:42:30.473Z,19.70
2018-06-02T13:44:57.980Z,19.82
2018-06-02T13:47:25.465Z,19.77
2018-06-02T13:49:52.950Z,19.95
2018-06-02T13:52:21.735Z,19.81
2018-06-02T13:54:49.344Z,19.60
2018-06-02T13:57:19.321Z,19.93
2018-06-02T14:00:01.163Z,20.23
2018-06-02T14:02:28.780Z,20.23
2018-06-02T14:07:53.664Z,20.74
2018-06-02T14:10:39.330Z,20.86
2018-06-02T14:13:07.757Z,20.73
2018-06-02T14:15:35.316Z,20.68
2018-06-02T14:18:03.192Z,20.75
2018-06-02T14:20:30.792Z,21.28
2018-06-02T14:22:58.282Z,21.19
2018-06-02T14:25:25.843Z,21.23
2018-06-02T14:27:53.274Z,21.16
2018-06-02T14:30:27.419Z,21.23
2018-06-02T14:32:54.917Z,20.84
2018-06-02T14:35:22.431Z,20.59
2018-06-02T14:37:49.918Z,20.95
2018-06-02T14:40:20.937Z,21.00
2018-06-02T14:42:48.435Z,20.85
2018-06-02T14:45:15.920Z,21.29
2018-06-02T14:47:43.442Z,20.56
2018-06-02T14:50:11.103Z,21.04
2018-06-02T14:52:38.626Z,21.34
2018-06-02T14:55:06.188Z,21.40
2018-06-02T14:57:33.712Z,20.96
2018-06-02T15:00:01.298Z,21.36
2018-06-02T15:02:29.194Z,21.52
2018-06-02T15:04:56.776Z,21.96
2018-06-02T15:07:30.134Z,22.29
2018-06-02T15:09:57.865Z,21.23
2018-06-02T15:12:25.482Z,21.17
2018-06-02T15:14:53.432Z,21.45
2018-06-02T15:17:20.967Z,20.88
2018-06-02T15:19:48.685Z,21.16
2018-06-02T15:22:16.437Z,21.49
2018-06-02T15:24:43.980Z,21.66
2018-06-02T15:27:11.738Z,21.84
2018-06-02T15:29:40.193Z,22.26
2018-06-02T15:32:10.901Z,22.15
2018-06-02T15:34:38.514Z,21.76
2018-06-02T15:37:07.176Z,21.06
2018-06-02T15:39:34.946Z,20.98
2018-06-02T15:45:00.739Z,21.17
2018-06-02T15:47:28.606Z,21.32
2018-06-02T15:49:56.097Z,21.33
2018-06-02T15:52:23.696Z,21.09
2018-06-02T15:54:51.651Z,20.95
2018-06-02T15:57:19.382Z,20.74
2018-06-02T15:59:47.012Z,20.64
2018-06-02T16:02:16.887Z,20.85
2018-06-02T16:04:44.595Z,20.75
2018-06-02T16:07:12.275Z,20.72
2018-06-02T16:09:40.039Z,20.80
2018-06-02T16:12:07.665Z,20.94
2018-06-02T16:15:00.759Z,21.00
2018-06-02T16:29:16.151Z,21.76
2018-06-02T16:31:43.648Z,21.44
2018-06-02T16:34:11.131Z,21.23
2018-06-02T16:36:38.670Z,21.07
2018-06-02T16:39:06.135Z,21.41
2018-06-02T16:41:33.623Z,21.56
2018-06-02T16:44:01.182Z,21.42
2018-06-02T16:46:28.719Z,21.29
2018-06-02T16:48:56.294Z,21.33
2018-06-02T16:51:23.946Z,21.42
2018-06-02T16:53:51.511Z,21.55
2018-06-02T16:56:19.065Z,21.32
2018-06-02T16:58:46.637Z,21.18
2018-06-02T17:01:14.234Z,20.98
2018-06-02T17:03:41.736Z,21.01
2018-06-02T17:06:09.421Z,20.92
2018-06-02T17:08:37.318Z,20.85
2018-06-02T17:11:05.201Z,20.97
2018-06-02T17:13:32.696Z,20.82
2018-06-02T17:16:00.202Z,20.72
2018-06-02T17:18:27.924Z,20.85
2018-06-02T17:20:55.506Z,20.90
2018-06-02T17:23:23.037Z,21.30
2018-06-02T17:25:50.599Z,21.06
2018-06-02T17:28:18.099Z,21.56
2018-06-02T17:30:45.572Z,21.56
2018-06-02T17:33:13.096Z,21.20
2018-06-02T17:35:40.592Z,21.41
2018-06-02T17:38:08.332Z,21.32
2018-06-02T17:40:35.915Z,21.27
2018-06-02T17:43:03.410Z,21.54
2018-06-02T17:45:31.073Z,21.15
2018-06-02T17:47:58.587Z,21.19
2018-06-02T17:50:26.076Z,21.13
2018-06-02T17:52:53.575Z,21.26
2018-06-02T17:55:21.122Z,21.20
2018-06-02T17:57:48.614Z,21.13
2018-06-02T18:00:16.135Z,20.98
2018-06-02T18:02:43.811Z,20.76
2018-06-02T18:05:11.561Z,20.93
2018-06-02T18:07:39.046Z,20.95
2018-06-02T18:10:06.699Z,20.55
2018-06-02T18:12:34.207Z,20.58
2018-06-02T18:15:01.771Z,20.57
2018-06-02T18:17:29.243Z,20.55
2018-06-02T18:19:56.731Z,20.43
2018-06-02T18:22:24.378Z,20.41
2018-06-02T18:24:52.129Z,20.49
2018-06-02T18:27:19.637Z,20.34
2018-06-02T18:29:47.115Z,20.33
2018-06-02T18:32:14.582Z,20.22
2018-06-02T18:34:42.079Z,20.13
2018-06-02T18:37:09.618Z,19.85
2018-06-02T18:39:37.071Z,19.87
2018-06-02T18:42:04.533Z,19.91
2018-06-02T18:44:32.050Z,19.87
2018-06-02T18:46:59.714Z,19.82
2018-06-02T18:49:27.272Z,19.44
2018-06-02T18:51:54.837Z,19.28
2018-06-02T18:54:22.417Z,19.05
2018-06-02T18:56:49.888Z,19.25
2018-06-02T18:59:17.441Z,19.24
2018-06-02T19:01:44.918Z,18.96
2018-06-02T19:04:12.406Z,19.01
2018-06-02T19:06:40.001Z,19.06
2018-06-02T19:09:07.503Z,19.03
2018-06-02T19:11:34.973Z,18.90
2018-06-02T19:14:02.569Z,18.85
2018-06-02T19:16:30.183Z,18.74
2018-06-02T19:18:58.005Z,18.58
2018-06-02T19:21:25.491Z,18.48
2018-06-02T19:23:52.979Z,18.43
2018-06-02T19:26:20.555Z,18.31
2018-06-02T19:28:48.108Z,18.34
2018-06-02T19:31:15.593Z,18.28
2018-06-02T19:33:43.105Z,18.12
2018-06-02T19:36:10.635Z,18.12
2018-06-02T19:38:38.411Z,18.09
2018-06-02T19:41:06.008Z,18.12
2018-06-02T19:43:33.555Z,18.02
2018-06-02T19:46:01.108Z,18.09
2018-06-02T19:48:28.650Z,18.07
2018-06-02T19:50:56.536Z,18.09
2018-06-02T19:53:24.058Z,18.00
2018-06-02T19:55:51.581Z,17.99
2018-06-02T19:58:19.103Z,17.82
2018-06-02T20:00:46.599Z,17.61
2018-06-02T20:03:14.205Z,17.53
2018-06-02T20:05:41.802Z,17.63
2018-06-02T20:08:09.324Z,17.63
2018-06-02T20:10:36.816Z,17.33
2018-06-02T20:13:04.348Z,17.15
2018-06-02T20:15:31.907Z,17.19
2018-06-02T20:17:59.480Z,17.14
2018-06-02T20:20:27.088Z,17.02
2018-06-02T20:22:54.615Z,17.12
2018-06-02T20:25:22.119Z,17.04
2018-06-02T20:27:49.863Z,16.99
2018-06-02T20:30:17.462Z,16.93
2018-06-02T20:32:44.929Z,16.83
2018-06-02T20:35:12.584Z,16.79
2018-06-02T20:37:40.219Z,16.80
2018-06-02T20:40:07.822Z,16.77
2018-06-02T20:42:35.360Z,16.69
2018-06-02T20:45:02.917Z,16.64
2018-06-02T20:47:30.958Z,16.74
2018-06-02T20:49:58.642Z,16.77
2018-06-02T20:52:26.117Z,16.72
2018-06-02T20:54:53.661Z,16.73
2018-06-02T20:57:21.193Z,16.58
2018-06-02T20:59:48.691Z,16.24
2018-06-02T21:02:16.183Z,16.04
2018-06-02T21:04:43.708Z,16.09
2018-06-02T21:07:11.602Z,16.09
2018-06-02T21:09:39.117Z,15.90
2018-06-02T21:12:06.587Z,15.82
2018-06-02T21:14:34.096Z,15.84
2018-06-02T21:17:01.622Z,15.76
2018-06-02T21:19:29.161Z,15.85
2018-06-02T21:21:56.686Z,15.91
2018-06-02T21:24:24.152Z,15.87
2018-06-02T21:26:51.665Z,15.84
2018-06-02T21:29:19.250Z,15.90
2018-06-02T21:31:46.837Z,15.69
2018-06-02T21:34:14.397Z,15.69
2018-06-02T21:36:41.955Z,15.83
2018-06-02T21:39:09.508Z,15.74
2018-06-02T21:41:37.014Z,15.61
2018-06-02T21:44:04.487Z,15.88
2018-06-02T21:46:32.071Z,16.08
2018-06-02T21:48:59.665Z,16.15
2018-06-02T21:51:27.279Z,16.14
2018-06-02T21:53:54.861Z,16.21
2018-06-02T21:56:22.363Z,16.03
2018-06-02T21:58:49.871Z,15.88
2018-06-02T22:01:17.427Z,15.89
2018-06-02T22:03:44.891Z,15.88
2018-06-02T22:06:12.392Z,15.76
2018-06-02T22:08:39.894Z,15.60
2018-06-02T22:11:07.391Z,15.64
2018-06-02T22:13:34.866Z,15.61
2018-06-02T22:16:02.380Z,15.45
2018-06-02T22:18:29.860Z,15.45
2018-06-02T22:20:57.494Z,15.53
2018-06-02T22:23:24.967Z,15.49
2018-06-02T22:25:52.585Z,15.31
2018-06-02T22:28:20.076Z,15.33
2018-06-02T22:30:47.578Z,15.29
2018-06-02T22:33:15.157Z,15.42
2018-06-02T22:35:45.757Z,15.40
2018-06-02T22:38:13.271Z,15.40
2018-06-02T22:40:40.762Z,15.37
2018-06-02T22:43:08.235Z,15.46
2018-06-02T22:45:35.732Z,15.48
2018-06-02T22:48:03.206Z,15.47
2018-06-02T22:50:30.755Z,15.46
2018-06-02T22:52:58.315Z,15.57
2018-06-02T22:55:25.810Z,15.56
2018-06-02T22:57:53.316Z,15.49
2018-06-02T23:00:20.815Z,15.25
2018-06-02T23:02:48.284Z,15.26
2018-06-02T23:05:19.018Z,15.33
2018-06-02T23:07:46.677Z,15.28
2018-06-02T23:10:14.161Z,15.23
2018-06-02T23:12:41.785Z,15.27
2018-06-02T23:15:09.311Z,15.33
2018-06-02T23:17:36.935Z,15.25
2018-06-02T23:20:04.528Z,14.99
2018-06-02T23:22:38.904Z,15.12
2018-06-02T23:25:06.430Z,15.22
2018-06-02T23:27:33.958Z,15.12
2018-06-02T23:30:01.550Z,15.14
2018-06-02T23:32:29.420Z,15.11
2018-06-02T23:34:56.942Z,15.09
2018-06-02T23:37:24.458Z,15.03
2018-06-02T23:39:51.959Z,15.04
2018-06-02T23:42:19.450Z,15.02
2018-06-02T23:44:47.009Z,15.00
2018-06-02T23:47:14.562Z,15.01
2018-06-02T23:49:42.034Z,15.07
2018-06-02T23:52:09.527Z,15.01
2018-06-02T23:54:37.007Z,14.95
2018-06-02T23:57:04.570Z,15.01
2018-06-02T23:59:32.191Z,14.98
